Time;durP1;ratioP1;P1;durP2;ratioP2;P2;SDS_P1;SDS_P2;PMS_P1;PMS_P2;Temp;Humidity;BMP_temperature;BMP_pressure;BME280_temperature;BME280_humidity;BME280_pressure;Samples;Min_cycle;Max_cycle;Signal;HPM_P1;HPM_P2
2022/10/24 00:00:52;;;;;;;5.72;2.80;;;26.40;32.80;;;;;;5069392;28;20632;-68
2022/10/24 00:03:18;;;;;;;8.77;2.38;;;26.40;33.30;;;;;;5069537;28;20088;-69
2022/10/24 00:05:46;;;;;;;10.38;4.03;;;26.40;34.00;;;;;;5069650;28;20089;-69
2022/10/24 00:08:14;;;;;;;12.07;3.33;;;26.30;34.90;;;;;;5069828;28;20482;-70
2022/10/24 00:10:42;;;;;;;8.82;2.95;;;26.20;35.00;;;;;;5069168;28;20073;-67
2022/10/24 00:13:10;;;;;;;8.75;2.20;;;26.20;35.10;;;;;;5074999;28;20550;-68
2022/10/24 00:15:36;;;;;;;6.57;2.47;;;26.30;34.90;;;;;;5068665;28;20085;-69
2022/10/24 00:18:03;;;;;;;8.88;2.47;;;26.30;34.30;;;;;;5069891;28;20089;-67
2022/10/24 00:20:30;;;;;;;10.25;3.15;;;26.20;34.70;;;;;;5069513;28;20077;-68
2022/10/24 00:22:56;;;;;;;5.90;2.38;;;26.10;34.40;;;;;;5068795;28;20186;-65
2022/10/24 00:25:22;;;;;;;7.93;2.15;;;26.00;33.90;;;;;;5074250;28;20089;-69
2022/10/24 00:27:49;;;;;;;6.70;3.38;;;26.00;34.70;;;;;;5069849;28;20498;-68
2022/10/24 00:30:15;;;;;;;9.90;2.67;;;25.90;34.20;;;;;;5071610;28;20421;-69
2022/10/24 00:32:41;;;;;;;12.98;2.80;;;25.80;34.00;;;;;;5069755;28;20108;-65
2022/10/24 00:35:10;;;;;;;9.10;2.90;;;25.80;34.30;;;;;;5069978;28;20080;-66
2022/10/24 00:37:36;;;;;;;8.45;2.80;;;25.70;35.00;;;;;;5069174;28;20084;-69
2022/10/24 00:40:05;;;;;;;11.07;2.90;;;25.70;35.10;;;;;;5067850;28;20073;-67
2022/10/24 00:42:31;;;;;;;8.55;2.42;;;25.60;35.30;;;;;;5069536;28;20156;-69
2022/10/24 00:44:58;;;;;;;8.60;2.83;;;25.50;34.80;;;;;;5067578;28;20188;-70
2022/10/24 00:47:27;;;;;;;8.60;2.33;;;25.50;35.60;;;;;;5071581;28;20073;-67
2022/10/24 00:50:12;;;;;;;11.38;2.97;;;25.40;35.80;;;;;;5069531;28;20101;-69
2022/10/24 00:52:43;;;;;;;7.43;2.17;;;25.20;36.20;;;;;;5068913;28;20094;-69
2022/10/24 00:55:11;;;;;;;10.52;4.30;;;25.20;35.20;;;;;;5075926;28;20065;-66
2022/10/24 00:57:48;;;;;;;6.72;2.33;;;25.10;36.30;;;;;;5073998;28;20144;-69
2022/10/24 01:00:19;;;;;;;13.48;3.63;;;25.10;36.50;;;;;;5077859;28;20191;-68
2022/10/24 01:02:46;;;;;;;14.82;3.03;;;25.00;38.00;;;;;;5073358;28;20083;-68
2022/10/24 01:05:13;;;;;;;13.73;4.35;;;25.00;40.10;;;;;;5070299;28;20088;-69
2022/10/24 01:07:52;;;;;;;12.73;3.88;;;24.90;40.80;;;;;;5073348;28;20081;-69
2022/10/24 01:10:55;;;;;;;14.90;4.25;;;24.90;41.90;;;;;;5073522;28;20515;-69
2022/10/24 01:13:45;;;;;;;15.63;4.35;;;24.80;42.80;;;;;;5074938;28;20096;-69
2022/10/24 01:16:27;;;;;;;11.15;3.97;;;24.70;43.20;;;;;;5074113;28;20068;-70
2022/10/24 01:19:11;;;;;;;17.10;4.63;;;24.70;43.50;;;;;;5076444;28;20433;-68
2022/10/24 01:21:52;;;;;;;12.27;3.47;;;24.60;44.00;;;;;;5073756;28;20068;-70
2022/10/24 01:24:42;;;;;;;17.10;3.90;;;24.60;44.40;;;;;;5072522;28;20084;-69
2022/10/24 01:27:24;;;;;;;15.40;4.25;;;24.50;45.00;;;;;;5069476;28;20065;-69
2022/10/24 01:30:08;;;;;;;15.55;4.28;;;24.50;45.50;;;;;;5070457;28;20077;-70
2022/10/24 01:33:10;;;;;;;17.17;3.95;;;24.50;45.60;;;;;;5079499;28;20065;-70
2022/10/24 01:35:43;;;;;;;11.57;4.05;;;24.40;45.90;;;;;;5070350;28;20108;-69
2022/10/24 01:38:36;;;;;;;17.90;3.90;;;24.30;46.40;;;;;;5070452;28;20126;-67
2022/10/24 01:41:25;;;;;;;24.45;3.60;;;24.30;46.40;;;;;;5071935;28;20535;-69
2022/10/24 01:44:01;;;;;;;20.73;4.18;;;24.20;46.70;;;;;;5069860;28;20084;-70
2022/10/24 01:46:34;;;;;;;19.50;4.43;;;24.20;46.60;;;;;;5071286;28;20076;-69
2022/10/24 01:49:17;;;;;;;12.75;4.18;;;24.10;47.00;;;;;;5069938;28;20077;-68
2022/10/24 01:51:47;;;;;;;17.25;4.70;;;24.10;47.30;;;;;;5070815;28;20081;-69
2022/10/24 01:54:14;;;;;;;18.15;4.25;;;24.00;47.50;;;;;;5071172;28;20084;-69
2022/10/24 01:56:41;;;;;;;15.90;4.10;;;23.90;47.60;;;;;;5054711;28;20156;-68
2022/10/24 01:59:29;;;;;;;17.42;4.55;;;23.90;47.70;;;;;;5071360;28;20061;-69
2022/10/24 02:02:05;;;;;;;18.00;4.90;;;23.80;47.90;;;;;;5069164;28;20124;-68
2022/10/24 02:04:34;;;;;;;17.77;4.78;;;23.80;48.10;;;;;;5075273;28;20092;-69
2022/10/24 02:07:03;;;;;;;17.77;4.13;;;23.80;48.40;;;;;;5070079;28;20077;-67
2022/10/24 02:09:32;;;;;;;16.85;4.63;;;23.70;48.40;;;;;;5071250;28;20073;-71
2022/10/24 02:12:00;;;;;;;20.20;4.90;;;23.60;48.60;;;;;;5071008;28;20062;-69
2022/10/24 02:14:39;;;;;;;19.50;4.03;;;23.60;48.90;;;;;;5070274;28;20103;-70
2022/10/24 02:17:06;;;;;;;15.05;4.15;;;23.60;49.10;;;;;;5075054;28;20494;-69
2022/10/24 02:19:33;;;;;;;15.55;4.60;;;23.50;49.00;;;;;;5068729;28;20077;-69
2022/10/24 02:22:08;;;;;;;18.88;4.63;;;23.50;49.10;;;;;;5071247;28;20127;-69
2022/10/24 02:24:46;;;;;;;19.70;5.30;;;23.40;49.30;;;;;;5067408;28;20085;-70
2022/10/24 02:27:22;;;;;;;13.38;4.40;;;23.30;49.30;;;;;;5067669;28;20097;-69
2022/10/24 02:30:01;;;;;;;19.07;4.17;;;23.30;49.40;;;;;;5067800;28;20419;-71
2022/10/24 02:32:34;;;;;;;19.73;4.80;;;23.30;49.40;;;;;;5070609;28;21803;-68
2022/10/24 02:35:02;;;;;;;16.23;4.05;;;23.20;49.30;;;;;;5073993;28;20453;-68
2022/10/24 02:37:30;;;;;;;18.50;4.82;;;23.20;49.50;;;;;;5077887;28;20131;-69
2022/10/24 02:39:58;;;;;;;15.32;5.00;;;23.10;49.00;;;;;;5072978;28;20069;-68
2022/10/24 02:42:27;;;;;;;15.68;4.32;;;23.10;48.60;;;;;;5071765;28;20073;-68
2022/10/24 02:44:54;;;;;;;17.15;4.20;;;23.00;48.40;;;;;;5069387;28;20116;-70
2022/10/24 02:47:23;;;;;;;21.30;4.25;;;22.90;48.30;;;;;;5066576;28;20080;-69
2022/10/24 02:49:49;;;;;;;18.95;4.75;;;22.90;48.50;;;;;;5073820;28;20068;-70
2022/10/24 02:52:16;;;;;;;14.77;4.35;;;22.80;48.30;;;;;;5072230;28;20541;-68
2022/10/24 02:54:43;;;;;;;15.55;4.82;;;22.80;48.30;;;;;;5070481;28;20077;-68
2022/10/24 02:57:09;;;;;;;17.60;4.57;;;22.80;48.20;;;;;;5072435;28;20073;-69
2022/10/24 02:59:36;;;;;;;26.10;4.93;;;22.60;48.00;;;;;;5068010;28;20069;-67
2022/10/24 03:02:02;;;;;;;17.27;4.75;;;22.60;47.90;;;;;;5071325;28;20093;-69
2022/10/24 03:04:28;;;;;;;18.48;4.47;;;22.50;47.90;;;;;;5070318;28;20088;-69
2022/10/24 03:06:55;;;;;;;19.20;4.28;;;22.50;47.90;;;;;;5071951;28;20513;-68
2022/10/24 03:09:21;;;;;;;16.02;4.25;;;22.40;47.90;;;;;;5073966;28;20188;-68
2022/10/24 03:11:47;;;;;;;19.15;4.47;;;22.40;47.80;;;;;;5069695;28;20567;-68
2022/10/24 03:14:14;;;;;;;21.08;4.22;;;22.40;47.90;;;;;;5070007;28;20100;-69
2022/10/24 03:16:40;;;;;;;19.08;4.93;;;22.40;48.20;;;;;;5068284;28;20077;-71
2022/10/24 03:19:07;;;;;;;16.08;4.32;;;22.30;48.20;;;;;;5068435;28;20586;-68
2022/10/24 03:21:33;;;;;;;15.77;3.88;;;22.30;48.20;;;;;;5068536;28;20115;-67
2022/10/24 03:24:00;;;;;;;16.23;4.18;;;22.20;48.30;;;;;;5077629;28;20115;-69
2022/10/24 03:26:26;;;;;;;19.15;4.75;;;22.10;48.30;;;;;;5077495;28;20573;-68
2022/10/24 03:28:52;;;;;;;17.02;4.55;;;22.10;48.60;;;;;;5070343;28;20127;-68
2022/10/24 03:31:19;;;;;;;17.98;4.72;;;22.00;49.00;;;;;;5067567;28;20127;-69
2022/10/24 03:33:45;;;;;;;17.15;4.57;;;22.00;49.10;;;;;;5070915;28;20071;-69
2022/10/24 03:36:11;;;;;;;23.42;6.85;;;22.00;49.30;;;;;;5076473;28;20450;-69
2022/10/24 03:38:38;;;;;;;18.02;4.15;;;21.90;49.30;;;;;;5079010;28;20171;-70
2022/10/24 03:41:04;;;;;;;16.77;4.40;;;21.90;49.50;;;;;;5069238;28;20073;-69
2022/10/24 03:43:31;;;;;;;11.73;3.60;;;21.90;49.50;;;;;;5068991;28;20081;-69
2022/10/24 03:45:58;;;;;;;18.67;3.65;;;21.80;49.40;;;;;;5069226;28;20117;-68
2022/10/24 03:48:25;;;;;;;13.90;4.07;;;21.80;49.80;;;;;;5066589;28;20069;-67
2022/10/24 03:50:52;;;;;;;14.27;3.38;;;21.90;49.90;;;;;;5068854;28;20065;-69
2022/10/24 03:53:18;;;;;;;13.95;4.00;;;21.90;50.30;;;;;;5068735;28;20069;-69
2022/10/24 03:55:44;;;;;;;15.57;3.50;;;21.80;50.50;;;;;;5068918;28;20473;-70
2022/10/24 03:58:11;;;;;;;15.25;3.95;;;21.80;50.70;;;;;;5080573;28;20183;-70
2022/10/24 04:00:39;;;;;;;13.02;3.33;;;21.70;50.90;;;;;;5067976;28;20645;-68
2022/10/24 04:03:06;;;;;;;25.23;5.05;;;21.70;51.00;;;;;;5068705;28;20081;-67
2022/10/24 04:05:33;;;;;;;20.02;4.90;;;21.70;52.00;;;;;;5071997;28;20188;-70
2022/10/24 04:08:00;;;;;;;25.15;5.20;;;21.40;55.00;;;;;;5072301;28;20069;-70
2022/10/24 04:10:26;;;;;;;14.63;4.10;;;21.30;56.00;;;;;;5068903;28;20069;-69
2022/10/24 04:12:53;;;;;;;18.40;4.20;;;21.20;56.30;;;;;;5068800;28;20096;-70
2022/10/24 04:15:19;;;;;;;17.08;4.07;;;21.10;56.70;;;;;;5073563;28;20525;-68
2022/10/24 04:17:46;;;;;;;20.15;4.20;;;21.00;57.10;;;;;;5069755;28;20069;-69
2022/10/24 04:20:13;;;;;;;18.02;5.07;;;20.90;57.10;;;;;;5068207;28;20099;-68
2022/10/24 04:22:39;;;;;;;18.25;4.25;;;20.90;57.10;;;;;;5068030;28;20130;-69
2022/10/24 04:25:06;;;;;;;19.30;4.30;;;20.90;56.80;;;;;;5068593;28;20084;-66
2022/10/24 04:27:33;;;;;;;20.95;4.50;;;20.90;56.70;;;;;;5077053;28;20080;-66
2022/10/24 04:29:59;;;;;;;23.30;4.30;;;20.90;56.50;;;;;;5078358;28;20073;-68
2022/10/24 04:32:26;;;;;;;20.08;4.40;;;20.90;56.50;;;;;;5077443;28;20077;-68
2022/10/24 04:34:52;;;;;;;20.90;4.55;;;20.90;56.30;;;;;;5078674;28;20073;-70
2022/10/24 04:37:18;;;;;;;17.02;4.70;;;21.00;56.40;;;;;;5074681;28;20186;-69
2022/10/24 04:39:45;;;;;;;21.48;4.18;;;21.00;56.20;;;;;;5074846;28;20077;-71
2022/10/24 04:42:11;;;;;;;16.70;4.47;;;21.00;56.10;;;;;;5074890;28;20076;-70
2022/10/24 04:44:37;;;;;;;16.13;4.00;;;21.00;56.00;;;;;;5081887;28;20585;-68
2022/10/24 04:47:04;;;;;;;18.73;4.68;;;21.00;56.00;;;;;;5082648;28;20415;-69
2022/10/24 04:49:30;;;;;;;17.58;4.05;;;21.00;56.30;;;;;;5072070;28;20085;-69
2022/10/24 04:51:57;;;;;;;21.30;5.20;;;21.00;56.10;;;;;;5074961;28;20095;-68
2022/10/24 04:54:23;;;;;;;18.48;4.80;;;21.00;56.10;;;;;;5074880;28;20072;-69
2022/10/24 04:56:49;;;;;;;19.15;5.20;;;21.00;56.30;;;;;;5078542;28;20069;-70
2022/10/24 04:59:16;;;;;;;25.17;5.55;;;21.00;56.20;;;;;;5075891;28;20089;-70
2022/10/24 05:01:42;;;;;;;25.23;5.10;;;21.00;56.40;;;;;;5075337;28;20107;-69
2022/10/24 05:04:08;;;;;;;18.55;4.63;;;20.90;56.50;;;;;;5074050;28;20581;-69
2022/10/24 05:06:35;;;;;;;19.02;4.60;;;20.90;56.60;;;;;;5077861;28;20542;-69
2022/10/24 05:09:01;;;;;;;20.80;4.75;;;21.00;56.60;;;;;;5079134;28;20181;-70
2022/10/24 05:11:27;;;;;;;17.27;4.50;;;20.90;56.60;;;;;;5076632;28;20524;-70
2022/10/24 05:13:54;;;;;;;18.67;5.15;;;20.90;56.70;;;;;;5074735;28;20596;-68
2022/10/24 05:16:20;;;;;;;18.20;5.05;;;20.90;56.80;;;;;;5075335;28;20522;-70
2022/10/24 05:18:47;;;;;;;20.10;4.68;;;20.90;57.10;;;;;;5074601;28;20088;-69
2022/10/24 05:21:13;;;;;;;16.23;4.85;;;20.90;57.30;;;;;;5077286;28;20144;-68
2022/10/24 05:23:40;;;;;;;21.60;4.53;;;20.90;57.50;;;;;;5075019;28;20073;-69
2022/10/24 05:26:06;;;;;;;24.48;4.85;;;20.90;57.50;;;;;;5077642;28;20096;-67
2022/10/24 05:28:34;;;;;;;23.27;5.03;;;20.90;57.50;;;;;;5075663;28;20468;-70
2022/10/24 05:31:00;;;;;;;22.67;4.50;;;20.90;57.50;;;;;;5075467;28;20124;-71
2022/10/24 05:33:27;;;;;;;17.75;4.38;;;20.90;57.20;;;;;;5074891;28;20057;-71
2022/10/24 05:35:53;;;;;;;20.25;5.30;;;20.90;57.30;;;;;;5074721;28;20096;-68
2022/10/24 05:38:20;;;;;;;20.67;5.07;;;20.90;57.30;;;;;;5073919;28;20131;-67
2022/10/24 05:40:50;;;;;;;21.52;4.60;;;20.90;57.40;;;;;;5071591;28;20073;-71
2022/10/24 05:43:17;;;;;;;19.35;4.65;;;20.90;57.40;;;;;;5074115;28;20607;-70
2022/10/24 05:45:46;;;;;;;20.27;5.03;;;20.90;57.50;;;;;;5071558;28;20542;-69
2022/10/24 05:48:13;;;;;;;19.90;4.90;;;20.90;57.60;;;;;;5069880;28;20099;-71
2022/10/24 05:50:39;;;;;;;21.48;5.28;;;20.90;58.20;;;;;;5069838;28;20069;-68
2022/10/24 05:53:07;;;;;;;19.48;5.20;;;20.90;57.40;;;;;;5072536;28;20114;-70
2022/10/24 05:55:34;;;;;;;19.90;4.97;;;20.90;57.50;;;;;;5076520;28;20096;-69
2022/10/24 05:58:01;;;;;;;21.77;5.15;;;20.90;57.70;;;;;;5070934;28;20429;-67
2022/10/24 06:00:28;;;;;;;20.58;4.85;;;20.90;57.60;;;;;;5074393;28;20092;-68
2022/10/24 06:02:54;;;;;;;19.05;5.18;;;20.80;57.70;;;;;;5071073;28;20097;-70
2022/10/24 06:05:21;;;;;;;20.13;4.85;;;20.80;58.10;;;;;;5080346;28;20084;-70
2022/10/24 06:07:47;;;;;;;23.08;4.20;;;20.80;57.30;;;;;;5077812;28;20232;-69
2022/10/24 06:10:14;;;;;;;18.65;4.22;;;20.80;57.40;;;;;;5074357;28;20085;-69
2022/10/24 06:12:40;;;;;;;18.30;3.83;;;20.70;57.40;;;;;;5072599;28;20069;-68
2022/10/24 06:15:08;;;;;;;23.15;4.95;;;20.70;57.40;;;;;;5075138;28;20514;-67
2022/10/24 06:17:34;;;;;;;19.88;4.22;;;20.60;57.00;;;;;;5070561;28;20077;-70
2022/10/24 06:20:01;;;;;;;23.05;4.57;;;20.60;57.00;;;;;;5070630;28;20564;-68
2022/10/24 06:22:28;;;;;;;17.73;4.35;;;20.50;56.80;;;;;;5071495;28;20164;-70
2022/10/24 06:24:55;;;;;;;25.48;4.38;;;20.40;56.90;;;;;;5070352;28;20116;-69
2022/10/24 06:27:22;;;;;;;19.10;4.20;;;20.40;56.90;;;;;;5074344;28;20481;-68
2022/10/24 06:29:48;;;;;;;21.58;4.65;;;20.40;56.90;;;;;;5070380;28;20172;-70
2022/10/24 06:32:15;;;;;;;16.80;4.03;;;20.30;56.90;;;;;;5070787;28;20514;-70
2022/10/24 06:34:41;;;;;;;16.52;4.20;;;20.30;56.70;;;;;;5070377;28;20079;-70
2022/10/24 06:37:08;;;;;;;21.52;4.20;;;20.20;56.60;;;;;;5070176;28;20116;-68
2022/10/24 06:39:34;;;;;;;17.40;4.32;;;20.20;56.30;;;;;;5070228;28;20138;-70
2022/10/24 06:42:00;;;;;;;13.38;3.80;;;20.10;56.70;;;;;;5071774;28;20085;-71
2022/10/24 06:44:27;;;;;;;21.27;4.25;;;20.10;56.70;;;;;;5071519;28;20080;-67
2022/10/24 06:46:53;;;;;;;15.95;3.90;;;20.10;56.50;;;;;;5069910;28;20073;-66
2022/10/24 06:49:20;;;;;;;18.33;4.60;;;20.00;56.70;;;;;;5069920;28;20069;-69
2022/10/24 06:51:46;;;;;;;16.17;3.70;;;20.00;55.40;;;;;;5068332;28;20545;-68
2022/10/24 06:54:13;;;;;;;14.90;3.80;;;20.00;54.40;;;;;;5070119;28;20074;-68
2022/10/24 06:56:39;;;;;;;15.27;3.35;;;19.90;53.00;;;;;;5072850;28;20477;-68
2022/10/24 06:59:15;;;;;;;12.18;3.10;;;19.90;53.10;;;;;;5074682;28;20098;-67
2022/10/24 07:01:42;;;;;;;13.02;3.42;;;19.90;51.60;;;;;;5077656;28;20131;-68
2022/10/24 07:04:08;;;;;;;11.18;2.45;;;19.90;51.60;;;;;;5071183;28;20127;-69
2022/10/24 07:06:35;;;;;;;19.25;3.88;;;19.90;51.80;;;;;;5078452;28;20450;-68
2022/10/24 07:09:03;;;;;;;21.30;5.30;;;19.80;52.00;;;;;;5070396;28;20164;-68
2022/10/24 07:11:29;;;;;;;24.98;5.10;;;19.80;51.80;;;;;;5069900;28;20418;-69
2022/10/24 07:13:56;;;;;;;15.93;4.45;;;19.80;51.80;;;;;;5072811;28;20080;-68
2022/10/24 07:16:23;;;;;;;15.88;4.07;;;19.80;51.30;;;;;;5069075;28;20084;-70
2022/10/24 07:18:50;;;;;;;17.80;3.15;;;19.70;51.20;;;;;;5069416;28;20076;-68
2022/10/24 07:21:23;;;;;;;17.95;3.58;;;19.70;51.50;;;;;;5072677;28;20065;-68
2022/10/24 07:23:51;;;;;;;15.68;3.60;;;19.60;50.20;;;;;;5071546;28;20123;-70
2022/10/24 07:26:18;;;;;;;22.58;3.63;;;19.70;50.10;;;;;;5078522;28;20116;-68
2022/10/24 07:28:46;;;;;;;19.52;3.42;;;19.60;49.90;;;;;;5069836;28;20077;-67
2022/10/24 07:31:16;;;;;;;16.52;3.60;;;19.60;49.40;;;;;;5068351;28;20565;-68
2022/10/24 07:33:43;;;;;;;18.23;3.90;;;19.50;49.50;;;;;;5069296;28;20652;-68
2022/10/24 07:36:09;;;;;;;17.65;3.50;;;19.50;48.70;;;;;;5069221;28;20192;-68
2022/10/24 07:38:36;;;;;;;14.82;2.83;;;19.50;48.40;;;;;;5071153;28;20077;-67
2022/10/24 07:41:04;;;;;;;11.68;3.10;;;19.50;48.70;;;;;;5070622;28;20085;-69
2022/10/24 07:43:31;;;;;;;14.70;3.35;;;19.40;47.80;;;;;;5068584;28;20463;-68
2022/10/24 07:45:57;;;;;;;19.27;3.50;;;19.50;47.80;;;;;;5073262;28;20089;-66
2022/10/24 07:48:23;;;;;;;17.10;3.17;;;19.40;47.00;;;;;;5073631;28;20087;-64
2022/10/24 07:50:50;;;;;;;11.60;3.45;;;19.40;47.10;;;;;;5068827;28;20093;-65
2022/10/24 07:53:16;;;;;;;12.52;2.17;;;19.30;46.20;;;;;;5068872;28;20603;-65
2022/10/24 07:55:44;;;;;;;19.33;2.60;;;19.30;43.30;;;;;;5081044;28;20072;-64
2022/10/24 07:58:11;;;;;;;9.32;2.10;;;19.30;42.60;;;;;;5069345;28;20081;-64
2022/10/24 08:00:38;;;;;;;9.13;1.63;;;19.30;42.80;;;;;;5076494;28;20159;-66
2022/10/24 08:03:04;;;;;;;8.05;1.80;;;19.30;41.10;;;;;;5067751;28;20496;-64
2022/10/24 08:05:30;;;;;;;8.95;1.83;;;19.20;40.50;;;;;;5075748;28;20175;-66
2022/10/24 08:07:57;;;;;;;12.27;1.33;;;19.30;39.10;;;;;;5070174;28;20118;-66
2022/10/24 08:10:23;;;;;;;5.82;0.93;;;19.30;37.30;;;;;;5073991;28;20091;-66
2022/10/24 08:12:50;;;;;;;5.75;0.93;;;19.40;37.00;;;;;;5069299;28;20164;-65
2022/10/24 08:15:16;;;;;;;7.25;0.90;;;19.40;36.70;;;;;;5069508;28;20138;-67
2022/10/24 08:17:42;;;;;;;3.45;0.90;;;19.50;36.30;;;;;;5068188;28;20180;-66
2022/10/24 08:20:10;;;;;;;5.25;0.90;;;19.50;36.50;;;;;;5068239;28;20081;-64
2022/10/24 08:22:36;;;;;;;3.85;0.95;;;19.50;36.00;;;;;;5070984;28;20159;-65
2022/10/24 08:25:05;;;;;;;9.63;1.10;;;19.50;36.00;;;;;;5069584;28;20117;-67
2022/10/24 08:27:31;;;;;;;4.20;0.65;;;19.50;35.90;;;;;;5067678;28;20077;-66
2022/10/24 08:29:58;;;;;;;4.00;0.82;;;19.50;36.00;;;;;;5068134;28;20119;-67
2022/10/24 08:32:24;;;;;;;4.30;0.68;;;19.40;36.80;;;;;;5068355;28;20069;-68
2022/10/24 08:34:50;;;;;;;2.67;0.73;;;19.40;36.30;;;;;;5073961;28;20073;-65
2022/10/24 08:37:17;;;;;;;5.43;0.93;;;19.30;36.40;;;;;;5068547;28;20121;-65
2022/10/24 08:39:43;;;;;;;3.05;0.90;;;19.40;36.20;;;;;;5068322;28;20385;-66
2022/10/24 08:42:14;;;;;;;6.15;0.90;;;19.30;36.40;;;;;;5072273;28;20907;-67
2022/10/24 08:44:43;;;;;;;5.50;0.93;;;19.30;36.40;;;;;;5068662;28;20085;-65
2022/10/24 08:47:35;;;;;;;5.32;0.90;;;19.30;36.10;;;;;;5067377;28;21046;-67
2022/10/24 08:50:03;;;;;;;8.65;1.23;;;19.20;36.60;;;;;;5075446;28;20079;-67
2022/10/24 08:52:45;;;;;;;4.85;1.30;;;19.20;36.60;;;;;;5065280;28;20095;-65
2022/10/24 08:55:35;;;;;;;7.05;0.95;;;19.10;37.00;;;;;;5067458;28;20069;-67
2022/10/24 08:58:04;;;;;;;2.15;0.80;;;19.10;37.00;;;;;;5068355;28;20091;-66
2022/10/24 09:00:39;;;;;;;3.53;0.75;;;19.10;36.40;;;;;;5067973;28;20191;-67
2022/10/24 09:03:14;;;;;;;3.95;0.82;;;19.00;36.40;;;;;;5071476;28;20104;-69
2022/10/24 09:05:56;;;;;;;6.63;0.68;;;19.10;35.40;;;;;;5068544;28;20094;-69
2022/10/24 09:08:27;;;;;;;6.57;0.70;;;19.00;35.10;;;;;;5068825;28;20092;-66
2022/10/24 09:11:01;;;;;;;8.27;1.10;;;19.00;36.30;;;;;;5067076;28;20160;-68
2022/10/24 09:13:29;;;;;;;6.85;0.82;;;19.00;36.10;;;;;;5072084;28;20103;-67
2022/10/24 09:15:56;;;;;;;6.07;0.60;;;19.00;35.50;;;;;;5073111;28;20533;-68
2022/10/24 09:18:33;;;;;;;2.78;0.60;;;18.90;36.50;;;;;;5071853;28;20427;-66
2022/10/24 09:21:00;;;;;;;6.07;0.73;;;18.90;36.20;;;;;;5071611;28;20084;-69
2022/10/24 09:23:27;;;;;;;6.80;0.77;;;18.90;35.70;;;;;;5070290;28;20142;-68
2022/10/24 09:25:58;;;;;;;5.40;0.70;;;18.90;36.30;;;;;;5071944;28;20134;-68
2022/10/24 09:28:24;;;;;;;3.35;0.68;;;18.80;36.60;;;;;;5075347;28;20139;-69
2022/10/24 09:30:51;;;;;;;5.65;0.73;;;18.70;36.90;;;;;;5078331;28;20134;-68
2022/10/24 09:33:26;;;;;;;7.65;0.60;;;18.80;36.60;;;;;;5071447;28;20697;-67
2022/10/24 09:35:56;;;;;;;6.32;0.60;;;18.70;36.80;;;;;;5078857;28;20588;-68
2022/10/24 09:38:32;;;;;;;3.90;0.60;;;18.60;36.80;;;;;;5079504;28;20124;-68
2022/10/24 09:41:03;;;;;;;5.85;0.80;;;18.60;37.50;;;;;;5076274;28;20545;-69
2022/10/24 09:43:29;;;;;;;5.35;0.82;;;18.60;37.20;;;;;;5071465;28;20518;-65
2022/10/24 09:45:58;;;;;;;;;;;18.50;37.40;;;;;;5072415;28;20107;-68
2022/10/24 09:48:27;;;;;;;4.22;0.60;;;18.50;37.40;;;;;;5070667;28;20413;-68
2022/10/24 09:50:55;;;;;;;5.70;0.40;;;18.50;37.70;;;;;;5074182;28;20209;-68
2022/10/24 09:53:31;;;;;;;1.83;0.55;;;18.40;37.30;;;;;;5069049;28;20077;-68
2022/10/24 09:56:06;;;;;;;;;;;18.40;37.60;;;;;;5068292;28;20073;-67
2022/10/24 09:58:32;;;;;;;2.42;0.47;;;18.40;37.90;;;;;;5070092;28;19964;-67
2022/10/24 10:01:06;;;;;;;6.45;0.65;;;18.40;38.00;;;;;;5078121;28;20175;-66
2022/10/24 10:03:34;;;;;;;5.40;0.60;;;18.40;37.90;;;;;;5071479;28;20140;-68
2022/10/24 10:06:20;;;;;;;3.15;0.63;;;18.40;38.20;;;;;;5074389;28;20112;-68
2022/10/24 10:08:52;;;;;;;1.27;0.70;;;18.40;37.60;;;;;;5071769;28;20165;-68
2022/10/24 10:11:32;;;;;;;4.55;0.50;;;18.30;37.80;;;;;;5070984;28;20298;-67
2022/10/24 10:14:02;;;;;;;3.20;0.50;;;18.20;37.90;;;;;;5072562;28;20461;-67
2022/10/24 10:16:32;;;;;;;3.92;0.60;;;18.20;38.20;;;;;;5075168;28;20207;-65
2022/10/24 10:19:13;;;;;;;3.67;0.80;;;18.20;38.20;;;;;;5075209;28;20449;-69
2022/10/24 10:21:54;;;;;;;2.38;0.43;;;18.20;38.00;;;;;;5074691;28;20101;-66
2022/10/24 10:24:34;;;;;;;1.05;0.50;;;18.20;38.40;;;;;;5069781;28;20156;-67
2022/10/24 10:27:01;;;;;;;0.98;0.43;;;18.20;38.40;;;;;;5071422;28;20073;-67
2022/10/24 10:29:28;;;;;;;1.80;0.50;;;18.10;38.20;;;;;;5072984;28;20069;-67
2022/10/24 10:32:02;;;;;;;1.45;0.50;;;18.10;38.40;;;;;;5069938;28;20083;-67
2022/10/24 10:34:31;;;;;;;2.65;0.50;;;18.00;38.40;;;;;;5070086;28;20089;-68
2022/10/24 10:37:00;;;;;;;3.70;0.73;;;18.00;38.60;;;;;;5071089;28;20104;-67
2022/10/24 10:39:39;;;;;;;1.77;0.80;;;18.00;38.90;;;;;;5071581;28;20077;-67
2022/10/24 10:42:11;;;;;;;1.45;0.50;;;17.90;38.80;;;;;;5070984;28;20121;-66
2022/10/24 10:44:38;;;;;;;1.77;0.50;;;17.90;38.70;;;;;;5070830;28;20203;-66
2022/10/24 10:47:04;;;;;;;;;;;17.90;38.60;;;;;;5071218;28;20172;-68
2022/10/24 10:49:32;;;;;;;1.48;0.50;;;17.90;38.80;;;;;;5070199;28;20126;-67
2022/10/24 10:52:28;;;;;;;3.58;0.60;;;17.80;38.70;;;;;;5070019;28;20437;-67
2022/10/24 10:55:12;;;;;;;1.17;0.57;;;17.70;39.40;;;;;;5066326;28;20080;-68
2022/10/24 10:58:00;;;;;;;1.55;0.40;;;17.70;39.40;;;;;;5068865;28;20114;-66
2022/10/24 11:00:35;;;;;;;;;;;17.70;39.60;;;;;;5069501;28;20089;-68
2022/10/24 11:03:23;;;;;;;1.38;0.60;;;17.60;39.50;;;;;;5069287;28;20052;-67
2022/10/24 11:06:11;;;;;;;1.83;0.90;;;17.60;39.60;;;;;;5068987;28;20085;-66
2022/10/24 11:09:11;;;;;;;3.03;0.47;;;17.60;39.70;;;;;;5069674;28;20076;-68
2022/10/24 11:11:45;;;;;;;0.50;0.40;;;17.50;40.50;;;;;;5068599;28;20069;-69
2022/10/24 11:14:27;;;;;;;1.65;0.50;;;17.50;40.40;;;;;;5069639;28;20135;-67
2022/10/24 11:16:57;;;;;;;0.52;0.30;;;17.50;41.10;;;;;;5069015;28;20065;-69
2022/10/24 11:19:50;;;;;;;0.47;0.40;;;17.40;41.10;;;;;;5070991;28;20103;-68
2022/10/24 11:22:26;;;;;;;4.63;0.50;;;17.50;41.20;;;;;;5059784;28;20489;-69
2022/10/24 11:25:02;;;;;;;0.68;0.50;;;17.50;41.70;;;;;;5078513;28;20145;-68
2022/10/24 11:27:39;;;;;;;4.57;0.43;;;17.50;42.10;;;;;;5076420;28;20068;-69
2022/10/24 11:30:14;;;;;;;2.90;0.40;;;17.50;41.70;;;;;;5073391;28;20153;-69
2022/10/24 11:32:46;;;;;;;1.55;0.45;;;17.50;42.10;;;;;;5069332;28;20076;-68
2022/10/24 11:35:28;;;;;;;1.17;0.50;;;17.40;42.30;;;;;;5067988;28;20089;-69
2022/10/24 11:38:19;;;;;;;3.10;0.40;;;17.40;42.40;;;;;;5069141;28;20155;-67
2022/10/24 11:40:49;;;;;;;1.55;0.47;;;17.40;42.40;;;;;;5068830;28;20087;-68
2022/10/24 11:43:34;;;;;;;5.20;0.50;;;17.40;42.30;;;;;;5068324;28;20087;-67
2022/10/24 11:46:04;;;;;;;3.00;0.52;;;17.30;42.70;;;;;;5068462;28;20085;-68
2022/10/24 11:48:39;;;;;;;4.03;0.73;;;17.30;42.70;;;;;;5069271;28;20902;-67
2022/10/24 11:51:17;;;;;;;4.43;0.68;;;17.20;43.10;;;;;;5068767;28;20096;-68
2022/10/24 11:54:02;;;;;;;3.90;0.77;;;17.10;43.20;;;;;;5068904;28;20106;-67
2022/10/24 11:56:48;;;;;;;2.72;0.50;;;17.10;43.50;;;;;;5066236;28;20073;-67
2022/10/24 11:59:18;;;;;;;6.90;0.80;;;17.10;43.50;;;;;;5068554;28;20557;-67
2022/10/24 12:01:51;;;;;;;2.67;0.50;;;17.00;43.10;;;;;;5068665;28;20101;-69
2022/10/24 12:04:54;;;;;;;4.85;0.40;;;17.00;43.10;;;;;;5068523;28;20522;-68
2022/10/24 12:07:29;;;;;;;5.45;0.90;;;16.90;43.10;;;;;;5069953;28;20538;-69
2022/10/24 12:10:28;;;;;;;9.10;0.70;;;17.00;43.10;;;;;;5069317;28;20155;-68
2022/10/24 12:13:29;;;;;;;7.00;0.70;;;17.00;43.20;;;;;;5068583;28;20088;-68
2022/10/24 12:16:11;;;;;;;2.47;0.43;;;17.00;43.40;;;;;;5067646;28;20081;-70
2022/10/24 12:18:50;;;;;;;2.53;0.60;;;16.90;43.20;;;;;;5068701;28;20080;-68
2022/10/24 12:21:24;;;;;;;0.50;0.45;;;16.90;43.20;;;;;;5068567;28;20083;-69
2022/10/24 12:23:59;;;;;;;3.20;0.63;;;16.80;43.20;;;;;;5068719;28;20080;-67
2022/10/24 12:26:31;;;;;;;2.15;0.50;;;16.80;42.80;;;;;;5068308;28;20103;-69
2022/10/24 12:29:04;;;;;;;3.75;0.93;;;16.80;42.50;;;;;;5068517;28;20065;-69
2022/10/24 12:31:33;;;;;;;3.80;0.50;;;16.90;42.20;;;;;;5067813;28;20469;-68
2022/10/24 12:34:15;;;;;;;5.10;0.90;;;16.90;42.10;;;;;;5068738;28;20088;-69
2022/10/24 12:37:19;;;;;;;4.00;0.70;;;17.00;41.60;;;;;;5067572;28;20167;-68
2022/10/24 12:39:48;;;;;;;2.13;0.47;;;17.00;41.20;;;;;;5031321;28;20612;-69
2022/10/24 12:42:15;;;;;;;3.75;0.55;;;16.90;41.00;;;;;;5030534;28;21246;-67
2022/10/24 12:44:43;;;;;;;5.75;0.60;;;17.00;41.20;;;;;;5034125;28;20088;-69
2022/10/24 12:47:27;;;;;;;5.47;0.50;;;17.00;41.10;;;;;;5035204;28;20132;-67
2022/10/24 12:49:53;;;;;;;5.57;0.82;;;16.90;41.50;;;;;;5031608;28;20081;-67
2022/10/24 12:52:31;;;;;;;11.15;0.80;;;17.00;41.30;;;;;;5035479;28;20082;-68
2022/10/24 12:54:58;;;;;;;3.92;0.70;;;17.00;41.60;;;;;;5036365;28;20199;-68
2022/10/24 12:57:38;;;;;;;7.18;0.82;;;17.00;41.40;;;;;;5041788;28;20090;-68
2022/10/24 13:00:26;;;;;;;5.95;1.13;;;17.00;41.50;;;;;;5033309;28;20521;-68
2022/10/24 13:03:33;;;;;;;5.28;0.73;;;16.90;41.70;;;;;;5041878;28;20074;-69